« 週報 富山空港 2014/5/28 wed | トップページ | SAYONARA国立競技場 FINAL FOR THE FUTURE 東京新宿区 2014/5/31 sat »

2014/05/31

SAYONARA国立競技場 FINAL FOR THE FUTURE 事前訓練 東京新宿区 2014/5/30 fri

2020年東京オリンピックを目指して、国立競技場が立て替えられることとなった。

現スタジアムは、1964年東京オリンピックのために建設され、50年間日本スポーツの中心としての座を新しいスタジアムに譲る。

その最後として、平成26年5月31日を『SAYONARA国立競技場FINAL “FOR THE FUTURE”』と題し、1日を通して国立競技場にゆかりのあるアスリートや国立競技場を愛するゲストをお迎えして、様々なプログラムを展開する。

その一環として、ブルーインパルスが会場上空を航過飛行を行う。

さて、どこで邀撃しようか・・・ 天候もあるしなぁと 早め出場で、現地ロケハン。当初お昼に備えて絵画館前に出向いたが、予定とおりの事前訓練となり、東京体育館に展開した。

METAR RJAI 300400Z 11008KT 9999 BKN240 27/14 Q1011 RMK 5CI240 A2987 MAX WIND 16KT
METAR RJTJ 300400Z 16008KT 120V200 9999 FW030 BKN230 30/09 Q1010 RMK 1CU030 A2984

20140530_shinanomachi_00kokuritsu

国立競技場南側の代々木ゲート 隣接の明治公園にお台場の中継車が陣取っているので、本番の生中継はこの角度かなぁ

20140530_shinanomachi_01ja6805

JA6805 AS332L1 JCG
この界隈は、結構VFR機のトラフイクが多い 

20140530_shinanomachi_02h99

入間から空幕長をお届けしたと思われるチヌちゃんが、防衛省ヘリポートから帰還。C99

METAR RJAI 300800Z 08003KT 9999 SCT240 27/13 Q1010 RMK 3CI240 A2984
METAR RJTJ 300800Z 16010KT 9999 FW030 SCT230 28/15 Q1009 RMK 1CU030 A2982

20140530_shinanomachi_03bi

防衛省タワーは、よく見ると天辺に人が・・ 俺もそこで見たい!!

20140530_shinanomachi_04bi

17時半からスタジアムでは、ブルーインパルスの紹介が始まった。が、6番機にいく前に・・

20140530_shinanomachi_05bi

スモーク!

20140530_shinanomachi_06bi

北東方から、ワイドデルタで進入です。

20140530_shinanomachi_07bi

20140530_shinanomachi_08bi

1.デルタ・ローパス

20140530_shinanomachi_09bi

左ターンで、180して・・

20140530_shinanomachi_10bi

20140530_shinanomachi_11bi

20140530_shinanomachi_12bi

2.スワン・ローパス

20140530_shinanomachi_13bi

20140530_shinanomachi_14bi

20140530_shinanomachi_15bi

20140530_shinanomachi_16bi

高ぁぁ でも、見た目はスゴー となる微妙な高度

20140530_shinanomachi_17bi

3.グランドクロス・ローパス

20140530_shinanomachi_18bi

20140530_shinanomachi_19bi

20140530_shinanomachi_20bi

20140530_shinanomachi_21bi

4.リーダーズベネフィット・ローパス

20140530_shinanomachi_22bi

そのまま、ダイレクト入間ですね。本番も良い天気でありますように!

6125 TCA

|

« 週報 富山空港 2014/5/28 wed | トップページ | SAYONARA国立競技場 FINAL FOR THE FUTURE 東京新宿区 2014/5/31 sat »

BI」カテゴリの記事

場外」カテゴリの記事

コメント

コメントを書く



(ウェブ上には掲載しません)


コメントは記事投稿者が公開するまで表示されません。



トラックバック


この記事へのトラックバック一覧です: SAYONARA国立競技場 FINAL FOR THE FUTURE 事前訓練 東京新宿区 2014/5/30 fri:

« 週報 富山空港 2014/5/28 wed | トップページ | SAYONARA国立競技場 FINAL FOR THE FUTURE 東京新宿区 2014/5/31 sat »